createdAt,value
2023-03-23T15:58:54.062Z,98886.06
2023-03-23T16:01:27.151Z,98889.63
2023-03-23T16:04:09.510Z,98880.47
2023-03-23T16:06:39.150Z,98885.53
2023-03-23T16:09:12.086Z,98893.19
2023-03-23T16:11:40.520Z,98887.84
2023-03-23T16:14:08.983Z,98882.72
2023-03-23T16:16:51.224Z,98887.09
2023-03-23T16:19:25.186Z,98887.31
2023-03-23T16:21:53.603Z,98885.25
2023-03-23T16:24:21.986Z,98881.16
2023-03-23T16:26:50.573Z,98883.97
2023-03-23T16:29:39.860Z,98876.84
2023-03-23T16:32:07.775Z,98875.31
2023-03-23T16:34:37.057Z,98868.41
2023-03-23T16:37:05.791Z,98870.69
2023-03-23T16:39:34.676Z,98861.50
2023-03-23T16:42:03.105Z,98863.03
2023-03-23T16:44:31.636Z,98854.59
2023-03-23T16:47:00.143Z,98854.38
2023-03-23T16:49:28.742Z,98857.19
2023-03-23T16:51:57.246Z,98854.38
2023-03-23T16:54:25.739Z,98848.75
2023-03-23T16:56:54.187Z,98855.91
2023-03-23T16:59:22.551Z,98848.22
2023-03-23T17:01:51.062Z,98856.13
2023-03-23T17:04:19.527Z,98863.25
2023-03-23T17:06:47.907Z,98856.34
2023-03-23T17:09:16.551Z,98857.88
2023-03-23T17:11:44.979Z,98862.41
2023-03-23T17:14:13.458Z,98857.03
2023-03-23T17:16:42.068Z,98855.72
2023-03-23T17:19:10.586Z,98849.56
2023-03-23T17:21:38.940Z,98853.91
2023-03-23T17:24:07.818Z,98860.81
2023-03-23T17:26:36.968Z,98865.66
2023-03-23T17:29:05.842Z,98868.47
2023-03-23T17:31:34.407Z,98863.41
2023-03-23T17:34:03.300Z,98865.44
2023-03-23T17:36:31.945Z,98852.69
2023-03-23T17:39:00.342Z,98861.13
2023-03-23T17:41:28.800Z,98854.75
2023-03-23T17:43:57.172Z,98852.47
2023-03-23T17:46:25.936Z,98851.50
2023-03-23T17:48:54.647Z,98843.38
2023-03-23T17:51:23.104Z,98843.91
2023-03-23T17:53:51.510Z,98833.97
2023-03-23T17:56:20.128Z,98831.16
2023-03-23T17:58:48.494Z,98829.09
2023-03-23T18:01:17.010Z,98826.31
2023-03-23T18:03:45.895Z,98831.38
2023-03-23T18:06:15.049Z,98831.16
2023-03-23T18:08:43.620Z,98824.03
2023-03-23T18:11:12.289Z,98832.97
2023-03-23T18:13:41.563Z,98817.94
2023-03-23T18:16:10.685Z,98825.91
2023-03-23T18:18:39.209Z,98819.53
2023-03-23T18:21:10.499Z,98818.78
2023-03-23T18:23:53.019Z,98820.81
2023-03-23T18:26:27.011Z,98821.38
2023-03-23T18:28:55.437Z,98823.19
2023-03-23T18:31:24.111Z,98817.34
2023-03-23T18:33:54.963Z,98816.38
2023-03-23T18:36:26.192Z,98811.28
2023-03-23T18:38:58.256Z,98815.16
2023-03-23T18:41:26.990Z,98810.06
2023-03-23T18:43:57.138Z,98809.09
2023-03-23T18:46:26.942Z,98803.97
2023-03-23T18:48:55.893Z,98802.25
2023-03-23T18:51:26.932Z,98793.38
2023-03-23T18:53:55.696Z,98789.03
2023-03-23T18:56:24.162Z,98784.69
2023-03-23T18:58:54.374Z,98787.28
2023-03-23T19:01:23.183Z,98790.38
2023-03-23T19:03:51.639Z,98790.16
2023-03-23T19:06:23.538Z,98790.69
2023-03-23T19:08:53.342Z,98771.59
2023-03-23T19:11:23.540Z,98782.03
2023-03-23T19:14:01.624Z,98773.41
2023-03-23T19:16:36.592Z,98776.22
2023-03-23T19:19:07.125Z,98771.88
2023-03-23T19:21:36.066Z,98772.19
2023-03-23T19:24:05.123Z,98766.84
2023-03-23T19:26:45.021Z,98765.66
2023-03-23T19:29:25.456Z,98765.94
2023-03-23T19:31:56.857Z,98769.59
2023-03-23T19:34:27.617Z,98772.69
2023-03-23T19:37:05.291Z,98770.94
2023-03-23T19:39:36.327Z,98778.91
2023-03-23T19:42:05.192Z,98776.38
2023-03-23T19:47:02.928Z,98784.09
2023-03-23T19:49:31.523Z,98776.19
2023-03-23T19:52:09.005Z,98783.63
2023-03-23T19:54:39.694Z,98783.38
2023-03-23T19:57:09.706Z,98787.47
2023-03-23T19:59:39.563Z,98788.00
2023-03-23T20:02:08.774Z,98782.94
2023-03-23T20:04:37.476Z,98783.47
2023-03-23T20:07:07.728Z,98781.91
2023-03-23T20:09:36.769Z,98790.09
2023-03-23T20:12:06.306Z,98790.84
2023-03-23T20:14:36.884Z,98791.38
2023-03-23T20:17:06.168Z,98796.22
2023-03-23T20:19:36.458Z,98795.97
2023-03-23T20:22:05.446Z,98800.81
2023-03-23T20:24:33.815Z,98796.50
2023-03-23T20:27:04.109Z,98797.25
2023-03-23T20:29:34.987Z,98799.56
2023-03-23T20:32:03.495Z,98792.13
2023-03-23T20:34:32.024Z,98797.22
2023-03-23T20:37:02.844Z,98803.56
2023-03-23T20:39:33.564Z,98803.06
2023-03-23T20:42:05.319Z,98795.94
2023-03-23T20:44:36.952Z,98794.41
2023-03-23T20:47:05.486Z,98790.84
2023-03-23T20:49:36.103Z,98795.16
2023-03-23T20:52:07.121Z,98795.69
2023-03-23T20:54:36.485Z,98788.03
2023-03-23T20:57:05.486Z,98799.56
2023-03-23T20:59:34.096Z,98807.69
2023-03-23T21:02:02.563Z,98805.41
2023-03-23T21:04:31.130Z,98808.50
2023-03-23T21:07:01.413Z,98809.81
2023-03-23T21:09:29.926Z,98812.38
2023-03-23T21:11:58.254Z,98809.34
2023-03-23T21:14:27.847Z,98815.47
2023-03-23T21:16:56.353Z,98810.38
2023-03-23T21:19:24.933Z,98807.34
2023-03-23T21:21:56.580Z,98809.38
2023-03-23T21:24:30.540Z,98814.00
2023-03-23T21:27:01.813Z,98822.16
2023-03-23T21:29:30.325Z,98815.56
2023-03-23T21:34:30.476Z,98822.97
2023-03-23T21:36:58.870Z,98823.47
2023-03-23T21:39:27.313Z,98836.50
2023-03-23T21:41:55.818Z,98829.38
2023-03-23T21:44:24.582Z,98836.50
2023-03-23T21:46:53.198Z,98840.56
2023-03-23T21:49:21.553Z,98842.84
2023-03-23T21:51:50.988Z,98848.97
2023-03-23T21:54:19.400Z,98853.81
2023-03-23T21:56:48.457Z,98855.88
2023-03-23T21:59:17.641Z,98851.31
2023-03-23T22:01:46.046Z,98858.94
2023-03-23T22:04:14.445Z,98867.88
2023-03-23T22:06:43.367Z,98869.69
2023-03-23T22:09:12.357Z,98869.44
2023-03-23T22:11:41.881Z,98869.19
2023-03-23T22:14:10.341Z,98873.81
2023-03-23T22:16:38.942Z,98881.22
2023-03-23T22:19:07.598Z,98880.22
2023-03-23T22:21:37.517Z,98884.03
2023-03-23T22:24:06.371Z,98887.88
2023-03-23T22:26:34.780Z,98891.19
2023-03-23T22:29:04.389Z,98894.50
2023-03-23T22:31:35.233Z,98900.09
2023-03-23T22:34:04.150Z,98897.81
2023-03-23T22:39:02.168Z,98912.84
2023-03-23T22:41:34.967Z,98915.38
2023-03-23T22:44:04.158Z,98921.75
2023-03-23T22:46:33.163Z,98920.75
2023-03-23T22:49:01.651Z,98925.06
2023-03-23T22:51:30.033Z,98935.50
2023-03-23T22:53:58.709Z,98935.50
2023-03-23T22:56:27.107Z,98936.03
2023-03-23T22:58:55.848Z,98940.34
2023-03-23T23:01:24.829Z,98945.94
2023-03-23T23:03:53.950Z,98949.50
2023-03-23T23:06:22.839Z,98954.34
2023-03-23T23:08:52.731Z,98959.94
2023-03-23T23:11:23.501Z,98960.47
2023-03-23T23:13:52.648Z,98962.50
2023-03-23T23:16:23.052Z,98970.13
2023-03-23T23:18:51.774Z,98984.66
2023-03-23T23:21:23.737Z,98987.22
2023-03-23T23:23:52.683Z,98996.38
2023-03-23T23:26:21.835Z,98995.59
2023-03-23T23:28:50.907Z,99000.69
2023-03-23T23:31:30.070Z,99010.59
2023-03-23T23:34:00.627Z,99012.13
2023-03-23T23:36:30.731Z,99013.66
2023-03-23T23:39:01.650Z,99024.34
2023-03-23T23:41:31.691Z,99027.38
2023-03-23T23:44:00.975Z,99025.34
2023-03-23T23:46:31.838Z,99028.38
2023-03-23T23:49:01.962Z,99030.19
2023-03-23T23:51:31.130Z,99039.34
2023-03-23T23:53:59.777Z,99052.31
2023-03-23T23:56:29.717Z,99052.03
2023-03-23T23:58:59.100Z,99048.22
